createdAt,value
2019-05-29T00:01:00.577Z,100132.10
2019-05-29T00:03:33.235Z,100138.63
2019-05-29T00:06:06.224Z,100143.84
2019-05-29T00:08:39.128Z,100142.05
2019-05-29T00:11:12.235Z,100145.48
2019-05-29T00:13:45.085Z,100148.50
2019-05-29T00:16:18.992Z,100159.42
2019-05-29T00:18:51.205Z,100163.74
2019-05-29T00:21:23.833Z,100172.42
2019-05-29T00:23:56.718Z,100172.81
2019-05-29T00:26:29.420Z,100173.20
2019-05-29T00:29:03.509Z,100174.42
2019-05-29T00:31:36.188Z,100182.25
2019-05-29T00:34:08.980Z,100189.62
2019-05-29T00:36:41.752Z,100184.33
2019-05-29T00:39:14.846Z,100181.61
2019-05-29T00:41:47.724Z,100191.63
2019-05-29T00:44:33.563Z,100193.23
2019-05-29T00:46:54.517Z,100196.28
2019-05-29T00:49:27.091Z,100201.94
2019-05-29T00:51:59.778Z,100204.05
2019-05-29T00:54:32.348Z,100204.00
2019-05-29T00:57:05.079Z,100210.05
2019-05-29T00:59:37.809Z,100213.94
2019-05-29T01:02:11.781Z,100216.92
2019-05-29T01:04:44.508Z,100203.81
2019-05-29T01:07:16.759Z,100209.85
2019-05-29T01:09:49.344Z,100211.58
2019-05-29T01:12:22.026Z,100219.85
2019-05-29T01:14:54.439Z,100214.14
2019-05-29T01:17:28.019Z,100221.05
2019-05-29T01:20:01.396Z,100222.80
2019-05-29T01:22:33.958Z,100226.20
2019-05-29T01:25:07.675Z,100229.23
2019-05-29T01:27:40.350Z,100220.53
2019-05-29T01:30:15.053Z,100230.48
2019-05-29T01:32:48.945Z,100236.16
2019-05-29T01:35:22.019Z,100228.23
2019-05-29T01:37:54.958Z,100231.68
2019-05-29T01:40:29.453Z,100240.80
2019-05-29T01:43:03.191Z,100250.86
2019-05-29T01:45:35.754Z,100253.90
2019-05-29T01:48:08.542Z,100261.69
2019-05-29T01:50:41.114Z,100260.75
2019-05-29T01:53:13.817Z,100264.27
2019-05-29T01:55:46.372Z,100272.05
2019-05-29T01:58:20.451Z,100277.25
2019-05-29T02:00:53.341Z,100273.31
2019-05-29T02:03:25.948Z,100268.55
2019-05-29T02:05:58.523Z,100278.95
2019-05-29T02:08:31.199Z,100292.53
2019-05-29T02:11:03.780Z,100299.44
2019-05-29T02:13:36.245Z,100297.23
2019-05-29T02:16:08.828Z,100300.27
2019-05-29T02:18:41.507Z,100304.06
2019-05-29T02:21:14.083Z,100318.00
2019-05-29T02:23:46.767Z,100317.92
2019-05-29T02:26:20.397Z,100319.59
2019-05-29T02:28:53.146Z,100324.27
2019-05-29T02:31:28.219Z,100329.73
2019-05-29T02:34:00.042Z,100347.49
2019-05-29T02:36:33.137Z,100353.06
2019-05-29T02:39:08.683Z,100360.38
2019-05-29T02:41:41.564Z,100364.70
2019-05-29T02:44:14.292Z,100363.31
2019-05-29T02:46:46.921Z,100359.66
2019-05-29T02:49:20.064Z,100363.56
2019-05-29T02:51:53.715Z,100362.13
2019-05-29T02:54:27.196Z,100367.37
2019-05-29T02:57:00.603Z,100379.94
2019-05-29T02:59:33.284Z,100380.28
2019-05-29T03:02:05.868Z,100385.42
2019-05-29T03:04:38.542Z,100382.26
2019-05-29T03:07:11.117Z,100382.73
2019-05-29T03:09:44.329Z,100391.48
2019-05-29T03:12:16.884Z,100395.83
2019-05-29T03:14:49.589Z,100396.25
2019-05-29T03:17:23.491Z,100412.02
2019-05-29T03:19:55.972Z,100411.60
2019-05-29T03:22:29.252Z,100413.95
2019-05-29T03:25:02.601Z,100417.50
2019-05-29T03:27:38.032Z,100428.53
2019-05-29T03:30:10.533Z,100425.64
2019-05-29T03:32:47.865Z,100429.73
2019-05-29T03:35:17.652Z,100435.11
2019-05-29T03:37:50.739Z,100437.15
2019-05-29T03:40:23.421Z,100435.48
2019-05-29T03:42:57.233Z,100435.72
2019-05-29T03:45:31.317Z,100439.05
2019-05-29T03:48:03.950Z,100449.39
2019-05-29T03:50:36.406Z,100450.54
2019-05-29T03:53:09.067Z,100454.40
2019-05-29T03:55:41.748Z,100454.12
2019-05-29T03:58:14.325Z,100456.75
2019-05-29T04:00:48.793Z,100458.95
2019-05-29T04:03:21.222Z,100462.28
2019-05-29T04:05:53.896Z,100469.31
2019-05-29T04:08:27.449Z,100472.84
2019-05-29T04:11:02.022Z,100475.04
2019-05-29T04:13:36.108Z,100480.81
2019-05-29T04:16:11.242Z,100484.80
2019-05-29T04:18:44.259Z,100485.18
2019-05-29T04:21:18.572Z,100488.10
2019-05-29T04:23:53.315Z,100493.42
2019-05-29T04:26:28.062Z,100486.42
2019-05-29T04:29:01.425Z,100491.67
2019-05-29T04:31:34.455Z,100502.19
2019-05-29T04:34:07.497Z,100507.91
2019-05-29T04:36:40.080Z,100510.40
2019-05-29T04:39:12.334Z,100516.39
2019-05-29T04:41:44.871Z,100517.15
2019-05-29T04:44:18.526Z,100523.19
2019-05-29T04:47:08.960Z,100541.36
2019-05-29T04:49:25.423Z,100537.00
2019-05-29T04:51:58.096Z,100542.73
2019-05-29T04:54:31.100Z,100543.88
2019-05-29T04:57:03.764Z,100553.89
2019-05-29T04:59:37.123Z,100549.02
2019-05-29T05:02:09.738Z,100550.50
2019-05-29T05:04:42.417Z,100555.76
2019-05-29T05:07:15.092Z,100556.88
2019-05-29T05:09:47.772Z,100560.92
2019-05-29T05:12:20.771Z,100568.86
2019-05-29T05:14:53.646Z,100574.12
2019-05-29T05:17:26.821Z,100576.97
2019-05-29T05:20:00.942Z,100574.03
2019-05-29T05:22:34.286Z,100586.63
2019-05-29T05:25:10.091Z,100592.05
2019-05-29T05:27:42.668Z,100594.64
2019-05-29T05:30:16.991Z,100605.25
2019-05-29T05:32:49.565Z,100611.88
2019-05-29T05:35:22.863Z,100614.08
2019-05-29T05:37:55.105Z,100618.63
2019-05-29T05:40:27.713Z,100621.32
2019-05-29T05:42:59.953Z,100634.75
2019-05-29T05:45:35.022Z,100640.01
2019-05-29T05:48:07.695Z,100649.45
2019-05-29T05:50:41.574Z,100649.83
2019-05-29T05:53:14.412Z,100649.92
2019-05-29T05:55:47.652Z,100651.08
2019-05-29T05:58:20.249Z,100660.16
2019-05-29T06:00:53.041Z,100666.52
2019-05-29T06:03:25.714Z,100674.45
2019-05-29T06:05:58.389Z,100682.85
2019-05-29T06:08:31.917Z,100687.77
2019-05-29T06:11:04.767Z,100688.55
2019-05-29T06:13:36.987Z,100685.84
2019-05-29T06:16:09.616Z,100686.50
2019-05-29T06:18:43.034Z,100688.82
2019-05-29T06:21:16.611Z,100685.15
2019-05-29T06:23:49.190Z,100685.36
2019-05-29T06:26:21.872Z,100684.67
2019-05-29T06:28:54.445Z,100686.80
2019-05-29T06:31:27.496Z,100677.34
2019-05-29T06:34:00.424Z,100675.42
2019-05-29T06:36:35.223Z,100692.56
2019-05-29T06:39:09.363Z,100693.19
2019-05-29T06:41:42.112Z,100703.59
2019-05-29T06:44:15.027Z,100704.12
2019-05-29T06:46:47.707Z,100703.91
2019-05-29T06:49:20.279Z,100707.95
2019-05-29T06:51:52.961Z,100703.33
2019-05-29T06:54:25.537Z,100710.84
2019-05-29T06:56:58.425Z,100702.13
2019-05-29T06:59:31.000Z,100706.97
2019-05-29T07:02:04.087Z,100713.16
2019-05-29T07:04:36.969Z,100711.83
2019-05-29T07:07:09.618Z,100720.03
2019-05-29T07:09:43.047Z,100730.56
2019-05-29T07:12:15.397Z,100730.20
2019-05-29T07:14:48.097Z,100739.39
2019-05-29T07:17:20.778Z,100742.17
2019-05-29T07:20:02.878Z,100745.78
2019-05-29T07:22:27.603Z,100743.05
2019-05-29T07:25:00.338Z,100752.84
2019-05-29T07:27:33.170Z,100742.23
2019-05-29T07:30:08.358Z,100752.37
2019-05-29T07:32:42.503Z,100740.91
2019-05-29T07:35:15.405Z,100751.92
2019-05-29T07:37:48.061Z,100748.81
2019-05-29T07:40:21.172Z,100751.91
2019-05-29T07:42:56.772Z,100753.20
2019-05-29T07:45:28.372Z,100755.31
2019-05-29T07:48:00.598Z,100766.03
2019-05-29T07:50:33.226Z,100765.66
2019-05-29T07:53:05.451Z,100766.95
2019-05-29T07:55:38.508Z,100774.00
2019-05-29T07:58:11.269Z,100778.32
2019-05-29T08:01:06.771Z,100788.08
2019-05-29T08:03:19.511Z,100789.91
2019-05-29T08:05:53.350Z,100788.52
2019-05-29T08:08:26.275Z,100793.00
2019-05-29T08:10:58.970Z,100800.49
2019-05-29T08:13:31.651Z,100795.61
2019-05-29T08:16:04.678Z,100805.77
2019-05-29T08:18:41.094Z,100805.27
2019-05-29T08:21:12.781Z,100803.83
2019-05-29T08:23:46.407Z,100817.28
2019-05-29T08:26:19.336Z,100819.04
2019-05-29T08:28:51.918Z,100828.72
2019-05-29T08:31:24.904Z,100821.16
2019-05-29T08:33:57.484Z,100823.27
2019-05-29T08:36:30.640Z,100817.50
2019-05-29T08:39:03.242Z,100824.19
2019-05-29T08:41:35.923Z,100822.30
2019-05-29T08:44:08.693Z,100825.53
2019-05-29T08:46:58.205Z,100818.00
2019-05-29T08:49:16.205Z,100826.91
2019-05-29T08:51:49.998Z,100842.42
2019-05-29T08:54:24.472Z,100842.40
2019-05-29T08:56:57.311Z,100839.78
2019-05-29T08:59:29.867Z,100837.47
2019-05-29T09:02:02.593Z,100846.97
2019-05-29T09:04:35.254Z,100844.84
2019-05-29T09:07:07.943Z,100845.77
2019-05-29T09:09:40.626Z,100846.78
2019-05-29T09:12:13.441Z,100847.91
2019-05-29T09:14:46.072Z,100844.34
2019-05-29T09:17:20.057Z,100856.02
2019-05-29T09:19:52.664Z,100848.34
2019-05-29T09:22:25.334Z,100849.02
2019-05-29T09:24:57.900Z,100832.97
2019-05-29T09:27:30.709Z,100846.87
2019-05-29T09:30:03.142Z,100852.48
2019-05-29T09:32:49.331Z,100861.95
2019-05-29T09:35:11.311Z,100861.30
2019-05-29T09:37:43.973Z,100885.26
2019-05-29T09:40:21.087Z,100883.47
2019-05-29T09:42:54.150Z,100878.17
2019-05-29T09:45:26.823Z,100880.41
2019-05-29T09:47:59.377Z,100876.26
2019-05-29T09:50:48.948Z,100875.27
2019-05-29T09:53:06.289Z,100888.75
2019-05-29T09:55:38.980Z,100879.11
2019-05-29T09:58:11.649Z,100878.26
2019-05-29T10:00:44.230Z,100883.02
2019-05-29T10:03:16.910Z,100883.73
2019-05-29T10:05:49.593Z,100889.47
2019-05-29T10:08:22.267Z,100884.29
2019-05-29T10:11:03.849Z,100888.83
2019-05-29T10:13:29.200Z,100887.89
2019-05-29T10:16:02.881Z,100893.78
2019-05-29T10:18:35.752Z,100891.67
2019-05-29T10:21:08.683Z,100907.16
2019-05-29T10:23:41.329Z,100909.88
2019-05-29T10:26:13.987Z,100905.50
2019-05-29T10:29:02.138Z,100911.19
2019-05-29T10:31:20.778Z,100909.68
2019-05-29T10:33:53.577Z,100914.66
2019-05-29T10:36:26.267Z,100923.24
2019-05-29T10:38:58.861Z,100931.20
2019-05-29T10:41:31.089Z,100932.95
2019-05-29T10:44:03.874Z,100934.27
2019-05-29T10:46:36.870Z,100932.92
2019-05-29T10:49:10.674Z,100934.63
2019-05-29T10:52:00.250Z,100931.53
2019-05-29T10:54:17.219Z,100934.08
2019-05-29T10:56:50.833Z,100938.08
2019-05-29T10:59:23.842Z,100938.14
2019-05-29T11:01:56.424Z,100951.06
2019-05-29T11:04:29.420Z,100955.05
2019-05-29T11:07:01.646Z,100961.63
2019-05-29T11:09:43.822Z,100947.30
2019-05-29T11:12:08.569Z,100965.55
2019-05-29T11:14:41.310Z,100963.78
2019-05-29T11:17:14.639Z,100963.30
2019-05-29T11:19:47.317Z,100971.41
2019-05-29T11:22:26.395Z,100973.13
2019-05-29T11:24:54.166Z,100978.38
2019-05-29T11:27:27.006Z,100973.60
2019-05-29T11:29:59.771Z,100973.05
2019-05-29T11:32:34.088Z,100971.83
2019-05-29T11:35:08.232Z,100971.38
2019-05-29T11:37:40.988Z,100974.91
2019-05-29T11:40:15.648Z,100982.64
2019-05-29T11:42:50.806Z,100987.69
2019-05-29T11:45:24.037Z,100987.22
2019-05-29T11:47:58.945Z,100989.48
2019-05-29T11:50:30.804Z,100989.06
2019-05-29T11:53:03.716Z,100990.82
2019-05-29T11:55:36.403Z,100984.54
2019-05-29T11:58:09.664Z,100975.44
2019-05-29T12:00:43.503Z,100975.88
2019-05-29T12:03:16.185Z,100977.13
2019-05-29T12:05:48.853Z,100975.13
2019-05-29T12:08:21.738Z,100983.92
2019-05-29T12:10:55.347Z,100981.78
2019-05-29T12:13:28.270Z,100990.58
2019-05-29T12:16:01.926Z,100994.36
2019-05-29T12:18:34.837Z,100989.09
2019-05-29T12:21:09.140Z,100999.92
2019-05-29T12:23:41.800Z,101005.20
2019-05-29T12:26:22.405Z,101002.08
2019-05-29T12:28:48.917Z,101007.71
2019-05-29T12:31:21.583Z,101003.02
2019-05-29T12:33:54.975Z,101003.59
2019-05-29T12:36:27.761Z,100990.64
2019-05-29T12:39:02.232Z,100985.87
2019-05-29T12:41:35.573Z,100995.14
2019-05-29T12:44:08.569Z,100989.13
2019-05-29T12:46:41.255Z,100990.59
2019-05-29T12:49:13.928Z,101001.67
2019-05-29T12:51:46.612Z,101007.38
2019-05-29T12:54:19.195Z,101005.88
2019-05-29T12:56:51.990Z,101010.44
2019-05-29T12:59:24.642Z,101003.89
2019-05-29T13:01:58.441Z,101010.05
2019-05-29T13:04:31.125Z,101015.52
2019-05-29T13:07:04.687Z,101010.03
2019-05-29T13:09:37.427Z,101016.02
2019-05-29T13:12:10.514Z,101006.86
2019-05-29T13:14:43.223Z,101003.30
2019-05-29T13:17:16.057Z,100994.84
2019-05-29T13:19:48.645Z,101002.69
2019-05-29T13:22:21.315Z,101001.56
2019-05-29T13:24:55.110Z,100995.07
2019-05-29T13:27:28.320Z,101009.66
2019-05-29T13:30:03.560Z,101002.65
2019-05-29T13:32:35.197Z,101005.31
2019-05-29T13:35:10.346Z,101005.97
2019-05-29T13:37:42.630Z,100996.95
2019-05-29T13:40:16.427Z,100999.97
2019-05-29T13:42:49.106Z,101002.41
2019-05-29T13:45:22.088Z,101004.77
2019-05-29T13:47:54.967Z,100997.44
2019-05-29T13:50:27.696Z,101006.77
2019-05-29T13:53:01.309Z,101006.37
2019-05-29T13:55:33.932Z,101008.88
2019-05-29T13:58:06.313Z,101009.58
2019-05-29T14:00:38.994Z,100996.63
2019-05-29T14:03:11.963Z,101002.88
2019-05-29T14:05:44.211Z,101003.08
2019-05-29T14:08:16.905Z,101002.45
2019-05-29T14:10:49.902Z,100993.78
2019-05-29T14:13:22.571Z,100996.77
2019-05-29T14:15:55.158Z,101003.28
2019-05-29T14:18:28.549Z,100998.80
2019-05-29T14:21:01.130Z,101016.20
2019-05-29T14:23:33.819Z,101007.06
2019-05-29T14:26:08.488Z,101017.42
2019-05-29T14:28:41.319Z,101010.37
2019-05-29T14:31:14.094Z,101004.33
2019-05-29T14:33:46.782Z,101013.83
2019-05-29T14:36:19.761Z,101007.18
2019-05-29T14:38:52.454Z,101009.03
2019-05-29T14:41:25.135Z,101005.51
2019-05-29T14:43:58.219Z,101004.54
2019-05-29T14:46:30.925Z,101008.27
2019-05-29T14:49:04.317Z,101017.15
2019-05-29T14:51:37.267Z,101003.20
2019-05-29T14:54:11.023Z,101007.13
2019-05-29T14:56:43.524Z,101010.32
2019-05-29T14:59:16.641Z,101022.64
2019-05-29T15:01:51.298Z,101011.51
2019-05-29T15:04:23.238Z,101013.67
2019-05-29T15:06:55.805Z,101013.23
2019-05-29T15:09:28.486Z,101014.07
2019-05-29T15:12:01.063Z,101017.25
2019-05-29T15:14:33.763Z,101033.22
2019-05-29T15:17:07.069Z,101033.46
2019-05-29T15:19:40.125Z,101016.14
2019-05-29T15:22:14.230Z,101034.69
2019-05-29T15:25:01.270Z,101038.41
2019-05-29T15:27:20.946Z,101021.51
2019-05-29T15:29:53.208Z,101032.34
2019-05-29T15:32:26.075Z,101031.05
2019-05-29T15:34:58.757Z,101033.83
2019-05-29T15:37:31.631Z,101037.94
2019-05-29T15:40:06.600Z,101044.51
2019-05-29T15:42:40.578Z,101047.95
2019-05-29T15:45:15.936Z,101042.66
2019-05-29T15:47:48.754Z,101043.77
2019-05-29T15:50:21.598Z,101042.45
2019-05-29T15:52:55.131Z,101042.83
2019-05-29T15:55:33.544Z,101047.33
2019-05-29T15:58:02.102Z,101063.75
2019-05-29T16:00:35.180Z,101063.75
2019-05-29T16:03:09.531Z,101062.83
2019-05-29T16:05:42.738Z,101052.62
2019-05-29T16:08:16.850Z,101045.86
2019-05-29T16:10:49.336Z,101041.94
2019-05-29T16:13:21.948Z,101043.55
2019-05-29T16:15:54.932Z,101047.50
2019-05-29T16:18:29.678Z,101042.36
2019-05-29T16:21:02.150Z,101046.45
2019-05-29T16:23:36.085Z,101058.69
2019-05-29T16:26:11.003Z,101056.28
2019-05-29T16:28:43.969Z,101057.55
2019-05-29T16:31:16.897Z,101052.23
2019-05-29T16:33:49.522Z,101057.18
2019-05-29T16:36:22.520Z,101066.85
2019-05-29T16:38:55.187Z,101070.53
2019-05-29T16:41:27.955Z,101070.70
2019-05-29T16:44:00.648Z,101085.19
2019-05-29T16:46:33.382Z,101085.45
2019-05-29T16:49:06.325Z,101082.72
2019-05-29T16:51:41.918Z,101083.17
2019-05-29T16:54:13.219Z,101089.97
2019-05-29T16:56:47.034Z,101096.70
2019-05-29T16:59:19.713Z,101099.32
2019-05-29T17:01:52.683Z,101105.49
2019-05-29T17:04:25.374Z,101103.70
2019-05-29T17:07:00.024Z,101095.83
2019-05-29T17:09:32.679Z,101103.05
2019-05-29T17:12:05.351Z,101098.48
2019-05-29T17:14:37.922Z,101103.34
2019-05-29T17:17:10.812Z,101108.38
2019-05-29T17:19:43.492Z,101109.36
2019-05-29T17:22:16.587Z,101116.62
2019-05-29T17:24:48.923Z,101122.98
2019-05-29T17:27:22.920Z,101120.80
2019-05-29T17:29:56.156Z,101125.64
2019-05-29T17:32:29.134Z,101125.33
2019-05-29T17:35:03.827Z,101121.48
2019-05-29T17:37:36.957Z,101130.52
2019-05-29T17:40:10.762Z,101134.05
2019-05-29T17:42:43.412Z,101141.09
2019-05-29T17:45:20.911Z,101149.58
2019-05-29T17:47:50.540Z,101145.09
2019-05-29T17:50:26.343Z,101152.10
2019-05-29T17:52:57.740Z,101149.42
2019-05-29T17:55:30.427Z,101158.55
2019-05-29T17:58:03.090Z,101161.63
2019-05-29T18:00:36.185Z,101160.25
2019-05-29T18:03:08.862Z,101161.48
2019-05-29T18:05:43.095Z,101159.20
2019-05-29T18:08:16.664Z,101159.98
2019-05-29T18:10:49.467Z,101160.73
2019-05-29T18:13:23.266Z,101175.06
2019-05-29T18:15:56.062Z,101173.22
2019-05-29T18:18:29.318Z,101179.30
2019-05-29T18:21:01.929Z,101183.59
2019-05-29T18:23:34.607Z,101187.03
2019-05-29T18:26:07.171Z,101192.64
2019-05-29T18:28:39.850Z,101192.95
2019-05-29T18:31:13.564Z,101201.64
2019-05-29T18:33:46.246Z,101208.59
2019-05-29T18:36:20.996Z,101210.64
2019-05-29T18:38:55.706Z,101208.80
2019-05-29T18:41:28.490Z,101221.80
2019-05-29T18:44:01.566Z,101222.16
2019-05-29T18:46:37.934Z,101227.34
2019-05-29T18:49:08.551Z,101228.83
2019-05-29T18:51:41.952Z,101234.80
2019-05-29T18:54:14.659Z,101236.33
2019-05-29T18:57:13.078Z,101240.22
2019-05-29T18:59:21.528Z,101249.23
2019-05-29T19:01:54.416Z,101257.37
2019-05-29T19:04:29.837Z,101255.92
2019-05-29T19:07:02.666Z,101261.86
2019-05-29T19:09:34.955Z,101265.20
2019-05-29T19:12:07.823Z,101273.39
2019-05-29T19:14:43.169Z,101275.78
2019-05-29T19:17:15.727Z,101283.00
2019-05-29T19:19:48.446Z,101284.61
2019-05-29T19:22:22.269Z,101288.12
2019-05-29T19:24:55.106Z,101296.36
2019-05-29T19:27:34.117Z,101297.41
2019-05-29T19:30:02.531Z,101301.69
2019-05-29T19:32:35.807Z,101298.91
2019-05-29T19:35:10.042Z,101306.70
2019-05-29T19:37:42.914Z,101307.80
2019-05-29T19:40:15.683Z,101308.97
2019-05-29T19:42:49.253Z,101312.69
2019-05-29T19:45:24.406Z,101307.33
2019-05-29T19:47:57.199Z,101320.33
2019-05-29T19:50:30.793Z,101321.56
2019-05-29T19:53:03.700Z,101328.05
2019-05-29T19:55:38.253Z,101326.57
2019-05-29T19:58:10.689Z,101335.26
2019-05-29T20:00:44.895Z,101337.33
2019-05-29T20:03:20.089Z,101341.17
2019-05-29T20:05:52.266Z,101354.58
2019-05-29T20:08:24.991Z,101355.70
2019-05-29T20:10:57.682Z,101359.02
2019-05-29T20:13:31.632Z,101363.18
2019-05-29T20:16:04.551Z,101363.93
2019-05-29T20:18:38.359Z,101371.28
2019-05-29T20:21:15.886Z,101368.95
2019-05-29T20:23:53.108Z,101373.23
2019-05-29T20:26:29.123Z,101372.66
2019-05-29T20:29:01.891Z,101373.05
2019-05-29T20:31:35.077Z,101376.39
2019-05-29T20:34:07.646Z,101385.98
2019-05-29T20:36:40.137Z,101381.44
2019-05-29T20:39:15.065Z,101390.93
2019-05-29T20:41:47.743Z,101385.52
2019-05-29T20:44:20.416Z,101392.86
2019-05-29T20:46:53.125Z,101397.99
2019-05-29T20:49:25.881Z,101393.57
2019-05-29T20:51:58.558Z,101401.26
2019-05-29T20:54:31.562Z,101402.34
2019-05-29T20:57:13.388Z,101405.64
2019-05-29T20:59:45.963Z,101410.63
2019-05-29T21:02:18.248Z,101412.30
2019-05-29T21:04:50.877Z,101414.34
2019-05-29T21:07:23.538Z,101413.23
2019-05-29T21:09:55.854Z,101412.72
2019-05-29T21:12:28.588Z,101410.37
2019-05-29T21:15:01.366Z,101415.49
2019-05-29T21:17:34.047Z,101416.63
2019-05-29T21:20:08.879Z,101429.09
2019-05-29T21:22:42.916Z,101427.95
2019-05-29T21:25:19.155Z,101423.50
2019-05-29T21:27:50.402Z,101427.30
2019-05-29T21:30:26.154Z,101434.46
2019-05-29T21:32:58.901Z,101437.80
2019-05-29T21:35:31.258Z,101442.34
2019-05-29T21:38:04.181Z,101442.61
2019-05-29T21:40:38.261Z,101437.52
2019-05-29T21:43:11.079Z,101440.86
2019-05-29T21:45:43.290Z,101438.50
2019-05-29T21:48:15.554Z,101450.19
2019-05-29T21:50:48.201Z,101453.06
2019-05-29T21:53:20.871Z,101451.19
2019-05-29T21:55:53.453Z,101453.50
2019-05-29T21:58:26.059Z,101460.31
2019-05-29T22:00:58.818Z,101456.27
2019-05-29T22:03:32.293Z,101453.90
2019-05-29T22:06:04.988Z,101457.67
2019-05-29T22:08:38.510Z,101454.86
2019-05-29T22:11:11.468Z,101459.94
2019-05-29T22:13:44.221Z,101466.73
2019-05-29T22:16:16.829Z,101466.33
2019-05-29T22:18:50.735Z,101478.77
2019-05-29T22:21:23.722Z,101473.66
2019-05-29T22:23:57.122Z,101475.74
2019-05-29T22:26:30.212Z,101480.78
2019-05-29T22:29:17.009Z,101480.08
2019-05-29T22:31:36.617Z,101479.91
2019-05-29T22:34:09.469Z,101481.91
2019-05-29T22:36:41.682Z,101478.64
2019-05-29T22:39:14.327Z,101478.88
2019-05-29T22:41:46.895Z,101489.14
2019-05-29T22:44:19.841Z,101500.28
2019-05-29T22:46:53.587Z,101498.72
2019-05-29T22:49:26.774Z,101501.44
2019-05-29T22:51:59.906Z,101506.05
2019-05-29T22:54:33.067Z,101506.77
2019-05-29T22:57:06.039Z,101503.40
2019-05-29T22:59:38.764Z,101504.80
2019-05-29T23:02:11.722Z,101507.51
2019-05-29T23:04:45.103Z,101510.72
2019-05-29T23:07:17.789Z,101508.24
2019-05-29T23:09:50.664Z,101509.63
2019-05-29T23:12:23.179Z,101513.31
2019-05-29T23:14:56.383Z,101512.19
2019-05-29T23:17:28.907Z,101516.55
2019-05-29T23:20:04.011Z,101519.58
2019-05-29T23:22:36.062Z,101518.34
2019-05-29T23:25:09.820Z,101524.05
2019-05-29T23:27:42.401Z,101526.25
2019-05-29T23:30:15.680Z,101530.56
2019-05-29T23:32:48.370Z,101534.71
2019-05-29T23:35:21.044Z,101536.16
2019-05-29T23:37:54.974Z,101530.64
2019-05-29T23:40:27.933Z,101533.75
2019-05-29T23:43:01.593Z,101535.41
2019-05-29T23:45:34.420Z,101535.17
2019-05-29T23:48:07.109Z,101535.23
2019-05-29T23:50:39.788Z,101537.22
2019-05-29T23:53:12.488Z,101523.88
2019-05-29T23:55:45.146Z,101525.00
2019-05-29T23:58:17.821Z,101525.66
